Flight Track Log - Related Links

Times and Time Zones

All times are in EDT time to prevent confusion due to time zone crossing. See the SWA57 flight status page for this flight to view local times or setup timezone preferences in your user account.


Time Position Orientation Groundspeed Altitude Reporting Facility
EDT Latitude Longitude Course Direction KTS MPH feet Rate Location/Type
Mon 08:19:07 PM 34.7069 -92.2744 241° Southwest 172 198 1,900  Level Memphis Center
Mon 08:20:08 PM 34.6767 -92.3344 238° Southwest 232 267 4,100 2,556 Climbing Memphis Center
Mon 08:20:55 PM 34.6447 -92.3842 232° Southwest 261 300 6,500 3,000 Climbing Memphis Center
Mon 08:21:14 PM 34.6275 -92.4092 230° Southwest 273 314 7,400 2,700 Climbing Memphis Center
Mon 08:22:55 PM 34.5811 -92.5542 249° West 284 327 11,900 2,832 Climbing Memphis Center
Mon 08:23:55 PM 34.5500 -92.6594 250° West 311 358 15,000 3,000 Climbing Memphis Center
Mon 08:24:55 PM 34.5144 -92.7744 249° West 344 396 17,900 2,700 Climbing Memphis Center
Mon 08:25:55 PM 34.4833 -92.8717 249° West 355 409 20,400 2,400 Climbing Memphis Center
Mon 08:26:55 PM 34.4475 -92.9942 251° West 370 426 22,700 2,200 Climbing Memphis Center
Mon 08:27:55 PM 34.4094 -93.1189 250° West 392 451 24,800 2,121 Climbing Memphis Center
Mon 08:30:13 PM 34.3100 -93.4183 248° West 415 478 29,700 2,030 Climbing Fort Worth Center
Mon 08:31:13 PM 34.2642 -93.5486 247° West 421 484 31,500 1,950 Climbing Fort Worth Center
Mon 08:32:13 PM 34.2200 -93.6811 248° West 421 484 33,600 1,900 Climbing Fort Worth Center
Mon 08:33:13 PM 34.1758 -93.8086 247° West 421 484 35,300 1,900 Climbing Fort Worth Center
Mon 08:34:13 PM 34.1317 -93.9386 248° West 421 484 37,400 2,017 Climbing Fort Worth Center
Mon 08:35:12 PM 34.0889 -94.0581 247° West 416 479 39,300 1,300 Climbing Fort Worth Center
Mon 08:36:13 PM 34.0483 -94.1775 248° West 403 464 40,000 347 Climbing Fort Worth Center
Mon 08:37:13 PM 34.0075 -94.2967 248° West 398 458 40,000  Level Fort Worth Center
Mon 08:38:13 PM 33.9625 -94.4186 246° West 398 458 40,000  Level Fort Worth Center
Mon 08:39:13 PM 33.9192 -94.5375 246° West 398 458 40,000 -450 Level Fort Worth Center
Mon 08:40:13 PM 33.8761 -94.6592 247° West 398 458 39,100 -900 Descending Fort Worth Center
Mon 08:41:13 PM 33.8347 -94.7781 247° West 398 458 38,200 -900 Descending Fort Worth Center
Mon 08:42:13 PM 33.7892 -94.8992 246° West 398 458 37,300 -1,765 Descending Fort Worth Center
Mon 08:43:12 PM 33.7458 -95.0203 247° West 398 458 34,700 -2,824 Descending Fort Worth Center
Mon 08:44:12 PM 33.6961 -95.1517 246° West 404 465 31,700 -2,727 Descending Fort Worth Center
Mon 08:45:13 PM 33.6544 -95.2750 248° West 409 471 29,200 -2,430 Descending Fort Worth Center
Mon 08:46:13 PM 33.6103 -95.3958 246° West 404 465 26,800 -2,370 Descending Fort Worth Center
Mon 08:47:12 PM 33.5664 -95.5114 246° West 399 459 24,500 -2,450 Descending Fort Worth Center
Mon 08:48:13 PM 33.5222 -95.6369 247° West 387 445 21,900 -2,281 Descending Fort Worth Center
Mon 08:49:13 PM 33.4819 -95.7472 246° West 374 430 19,900 -2,150 Descending Fort Worth Center
Mon 08:50:13 PM 33.4417 -95.8550 246° West 368 423 17,600 -2,100 Descending Fort Worth Center
Mon 08:51:13 PM 33.4031 -95.9578 246° West 356 410 15,700 -2,050 Descending Fort Worth Center
Mon 08:52:13 PM 33.3667 -96.0603 247° West 340 391 13,500 -2,000 Descending Fort Worth Center
Mon 08:53:13 PM 33.3281 -96.1581 245° Southwest 340 391 11,700 -1,714 Descending Fort Worth Center
Mon 08:54:12 PM 33.2956 -96.2503 247° West 335 386 10,100 -1,300 Descending Fort Worth Center
Mon 08:55:13 PM 33.2631 -96.3378 246° West 304 350 9,100 -699 Descending Fort Worth Center
Mon 08:55:55 PM 33.2333 -96.3833 232° Southwest 271 312 8,900 -824 Descending Dallas / Fort Worth TRACON
Mon 08:56:55 PM 33.1500 -96.4167 199° South 285 328 7,700 -1,300 Descending Dallas / Fort Worth TRACON
Mon 08:57:55 PM 33.1000 -96.4667 220° Southwest 277 319 6,300 -1,308 Descending Dallas / Fort Worth TRACON
Mon 08:58:13 PM 33.0764 -96.4911 221° Southwest 281 323 6,000 -1,169 Descending Fort Worth Center
Mon 08:59:12 PM 33.0161 -96.5489 219° Southwest 281 323 4,800 -1,250 Descending Fort Worth Center
Mon 09:00:13 PM 32.9622 -96.5989 218° Southwest 281 323 3,500 -1,107 Descending Fort Worth Center
Mon 09:00:55 PM 32.9167 -96.6333 212° Southwest 262 302 2,900 -778 Descending Dallas / Fort Worth TRACON
Mon 09:02:01 PM 32.8500 -96.7000 220° Southwest 236 272 2,100 -400 Descending Dallas / Fort Worth TRACON
Mon 09:02:55 PM 32.8167 -96.7333 220° Southwest 171 197 2,100  Level Dallas / Fort Worth TRACON
Mon 09:03:55 PM 32.8000 -96.7833 248° West 165 190 2,100 -500 Level Dallas / Fort Worth TRACON
Mon 09:04:55 PM 32.8167 -96.8167 301° West 144 166 1,100 -1,000 Descending Dallas / Fort Worth TRACON
Mon 09:10:00 PM 32.8333 -96.8500 289° West  Level FlightAware Approximate
Mon 09:17:00 PM 32.8471 -96.8518 289° West  Level Estimated
Mon 09:18:00 PM 32.8471 -96.8518 289° West  Level Estimated

Login

Don't have an account? Register now (free) for customized features, flight alerts, and more!